Time;durP1;ratioP1;P1;durP2;ratioP2;P2;SDS_P1;SDS_P2;PMS_P1;PMS_P2;Temp;Humidity;BMP_temperature;BMP_pressure;BME280_temperature;BME280_humidity;BME280_pressure;Samples;Min_cycle;Max_cycle;Signal;HPM_P1;HPM_P2
2022/05/18 00:01:11;;;;;;;4.82;1.92;;;15.00;99.90;;;14.35;100.00;98005.16;4980175;28;20088;-71
2022/05/18 00:03:43;;;;;;;4.13;1.95;;;15.00;99.90;;;14.33;100.00;98017.44;4983358;28;20481;-70
2022/05/18 00:06:11;;;;;;;4.43;2.03;;;15.00;99.90;;;14.37;100.00;98012.00;4979637;28;20039;-71
2022/05/18 00:08:39;;;;;;;4.85;1.90;;;15.10;99.90;;;14.40;100.00;98016.22;4981608;28;20408;-70
2022/05/18 00:11:15;;;;;;;3.78;1.67;;;15.10;99.90;;;14.55;100.00;98010.25;4979461;28;20511;-70
2022/05/18 00:13:46;;;;;;;5.25;1.83;;;15.20;99.90;;;14.52;100.00;98010.34;4994790;28;20476;-70
2022/05/18 00:16:14;;;;;;;3.20;1.65;;;15.20;99.90;;;14.61;100.00;98009.06;4978484;28;20492;-70
2022/05/18 00:18:42;;;;;;;2.63;1.65;;;15.10;99.90;;;14.55;100.00;98015.47;4981368;28;20105;-70
2022/05/18 00:21:09;;;;;;;3.40;1.50;;;15.10;99.90;;;14.60;100.00;98000.38;4980348;28;20633;-70
2022/05/18 00:23:37;;;;;;;7.30;2.22;;;15.10;99.90;;;14.57;100.00;98005.78;4982472;28;20050;-70
2022/05/18 00:26:05;;;;;;;3.75;1.67;;;15.10;99.90;;;14.68;100.00;98001.75;4979707;28;20074;-70
2022/05/18 00:28:33;;;;;;;3.42;1.38;;;15.10;99.90;;;14.71;100.00;97996.34;4982311;28;20101;-70
2022/05/18 00:31:01;;;;;;;5.70;1.60;;;15.20;99.90;;;14.55;100.00;98001.53;4978765;28;20181;-70
2022/05/18 00:33:29;;;;;;;3.80;1.60;;;15.20;99.90;;;14.55;100.00;98009.38;4982462;28;20050;-70
2022/05/18 00:35:59;;;;;;;5.22;1.80;;;15.10;99.90;;;14.43;100.00;98009.03;4981147;28;20732;-71
2022/05/18 00:38:26;;;;;;;4.00;2.05;;;15.20;99.90;;;14.20;100.00;98010.22;4981580;28;20121;-71
2022/05/18 00:40:54;;;;;;;6.30;1.85;;;15.10;99.90;;;13.90;100.00;98015.19;4982133;28;20074;-70
2022/05/18 00:43:31;;;;;;;3.85;1.80;;;15.00;99.90;;;13.76;100.00;98022.88;4976946;28;20464;-70
2022/05/18 00:46:01;;;;;;;6.30;1.92;;;14.90;99.90;;;13.96;100.00;98016.69;4978448;28;20161;-70
2022/05/18 00:48:29;;;;;;;4.18;1.85;;;14.90;99.90;;;14.02;100.00;98011.97;4983005;28;20493;-70
2022/05/18 00:51:01;;;;;;;4.68;1.83;;;14.80;99.90;;;13.98;100.00;98007.84;4983499;28;20046;-70
2022/05/18 00:53:39;;;;;;;5.57;2.05;;;14.80;99.90;;;13.69;100.00;98009.28;4978795;28;20145;-70
2022/05/18 00:56:19;;;;;;;4.32;1.88;;;14.70;99.90;;;13.76;100.00;98013.25;4979146;28;20098;-70
2022/05/18 00:59:00;;;;;;;3.25;1.55;;;14.70;99.90;;;13.79;100.00;98018.31;4979562;28;20167;-70
2022/05/18 01:01:28;;;;;;;3.45;2.40;;;14.60;99.90;;;13.62;100.00;98014.88;4978666;28;20427;-70
2022/05/18 01:03:56;;;;;;;3.90;1.73;;;14.60;99.90;;;13.74;100.00;98019.47;4979024;28;20043;-73
2022/05/18 01:06:33;;;;;;;5.78;2.35;;;14.50;99.90;;;13.78;100.00;98021.88;4981229;28;20137;-69
2022/05/18 01:09:18;;;;;;;5.25;1.55;;;14.50;99.90;;;13.74;100.00;98017.72;4970004;28;20046;-69
2022/05/18 01:11:45;;;;;;;4.88;2.42;;;14.50;99.90;;;13.46;100.00;98019.97;4983934;28;20433;-69
2022/05/18 01:14:36;;;;;;;5.38;2.55;;;14.50;99.90;;;13.46;100.00;98027.78;4981205;28;20552;-70
2022/05/18 01:17:05;;;;;;;3.67;2.20;;;14.40;99.90;;;13.52;100.00;98020.50;4980848;28;20473;-70
2022/05/18 01:19:44;;;;;;;5.65;2.05;;;14.40;99.90;;;13.76;100.00;98026.31;4984389;28;20410;-69
2022/05/18 01:22:23;;;;;;;4.10;2.00;;;14.40;99.90;;;13.79;100.00;98023.53;4982915;28;20145;-69
2022/05/18 01:25:12;;;;;;;5.28;2.55;;;14.40;99.90;;;13.29;100.00;98018.97;4985128;28;20134;-70
2022/05/18 01:27:39;;;;;;;2.80;2.03;;;14.40;99.90;;;13.52;100.00;98027.47;4981007;28;20090;-69
2022/05/18 01:30:08;;;;;;;4.18;2.50;;;14.40;99.90;;;13.39;100.00;98027.22;4977985;28;20125;-69
2022/05/18 01:32:50;;;;;;;3.13;2.00;;;14.30;99.90;;;13.55;100.00;98027.34;4994137;28;20128;-70
2022/05/18 01:35:26;;;;;;;3.80;2.05;;;14.30;99.90;;;13.72;100.00;98027.38;4978905;28;20054;-69
2022/05/18 01:37:59;;;;;;;4.13;1.85;;;14.30;99.90;;;13.74;100.00;98029.91;4987417;28;20125;-70
2022/05/18 01:40:37;;;;;;;3.47;1.90;;;14.40;99.90;;;13.56;100.00;98026.41;4980740;28;20141;-69
2022/05/18 01:43:26;;;;;;;4.28;2.63;;;14.30;99.90;;;13.26;100.00;98026.06;4983777;28;20138;-69
2022/05/18 01:46:00;;;;;;;3.70;2.05;;;14.30;99.90;;;13.42;100.00;98029.69;4981597;28;20153;-70
2022/05/18 01:48:41;;;;;;;3.47;1.80;;;14.20;99.90;;;13.41;100.00;98033.22;4984268;28;20051;-70
2022/05/18 01:51:10;;;;;;;4.68;2.40;;;14.20;99.90;;;13.35;100.00;98031.72;4982109;28;20151;-69
2022/05/18 01:53:37;;;;;;;3.70;2.17;;;14.20;99.90;;;13.46;100.00;98026.03;4981432;28;20130;-69
2022/05/18 01:56:04;;;;;;;3.63;1.92;;;14.20;99.90;;;13.41;100.00;98033.22;4985415;28;20070;-69
2022/05/18 01:58:32;;;;;;;5.25;2.53;;;14.10;99.90;;;13.25;100.00;98037.41;4981031;28;20065;-69
2022/05/18 02:01:02;;;;;;;5.60;2.58;;;14.00;99.90;;;13.08;100.00;98032.97;4981690;28;20070;-70
2022/05/18 02:03:29;;;;;;;6.55;2.65;;;13.90;99.90;;;12.98;100.00;98041.19;4983382;28;20062;-70
2022/05/18 02:05:56;;;;;;;4.88;2.25;;;13.80;99.90;;;12.97;100.00;98042.09;4984054;28;20125;-69
2022/05/18 02:08:24;;;;;;;4.50;2.35;;;13.70;99.90;;;13.05;100.00;98047.00;4978634;28;20126;-69
2022/05/18 02:10:50;;;;;;;3.95;2.20;;;13.70;99.90;;;13.11;100.00;98040.63;4983352;28;20129;-69
2022/05/18 02:13:18;;;;;;;2.72;1.63;;;13.80;99.90;;;13.26;100.00;98050.38;4983740;28;20473;-69
2022/05/18 02:15:45;;;;;;;3.92;2.10;;;13.90;99.90;;;13.12;100.00;98044.94;4984412;28;20054;-69
2022/05/18 02:18:12;;;;;;;3.35;1.88;;;13.90;99.90;;;13.07;100.00;98039.94;4980357;28;20639;-70
2022/05/18 02:20:39;;;;;;;4.60;1.77;;;13.80;99.90;;;13.07;100.00;98039.94;4982823;28;20082;-70
2022/05/18 02:23:07;;;;;;;5.28;1.98;;;13.70;99.90;;;13.02;100.00;98038.44;4977871;28;20133;-69
2022/05/18 02:25:37;;;;;;;3.25;1.75;;;13.70;99.90;;;12.87;100.00;98037.38;4983978;28;20050;-69
2022/05/18 02:28:05;;;;;;;5.03;1.92;;;13.70;99.90;;;12.94;100.00;98041.41;4983983;28;20051;-69
2022/05/18 02:30:32;;;;;;;4.07;2.05;;;13.60;99.90;;;13.03;100.00;98041.00;4983114;28;20050;-70
2022/05/18 02:33:00;;;;;;;4.00;1.75;;;13.60;99.90;;;13.01;100.00;98045.44;4983822;28;20145;-70
2022/05/18 02:35:27;;;;;;;4.22;2.15;;;13.60;99.90;;;12.65;100.00;98040.91;4986162;28;20142;-69
2022/05/18 02:37:54;;;;;;;3.92;1.95;;;13.60;99.90;;;12.69;100.00;98045.09;4982907;28;20082;-69
2022/05/18 02:40:22;;;;;;;4.10;2.20;;;13.50;99.90;;;12.66;100.00;98052.22;4984982;28;20133;-69
2022/05/18 02:42:49;;;;;;;4.13;2.05;;;13.50;99.90;;;12.76;100.00;98056.09;4984375;28;20257;-70
2022/05/18 02:45:16;;;;;;;4.88;2.22;;;13.50;99.90;;;12.67;100.00;98066.91;4982932;28;20062;-70
2022/05/18 02:47:43;;;;;;;6.72;2.30;;;13.40;99.90;;;12.55;100.00;98065.69;4983110;28;20515;-70
2022/05/18 02:50:10;;;;;;;4.45;2.10;;;13.40;99.90;;;12.53;100.00;98068.34;4980418;28;20130;-69
2022/05/18 02:52:38;;;;;;;4.25;1.90;;;13.40;99.90;;;12.52;100.00;98065.78;4983615;28;20129;-69
2022/05/18 02:57:52;;;;;;;3.88;2.05;;;13.30;99.90;;;12.47;100.00;98065.16;4982122;28;20054;-69
2022/05/18 03:00:20;;;;;;;3.38;1.90;;;13.20;99.90;;;12.49;100.00;98071.97;4982589;28;20101;-69
2022/05/18 03:02:46;;;;;;;4.32;2.17;;;13.20;99.90;;;12.48;100.00;98074.66;4982454;28;20480;-69
2022/05/18 03:05:14;;;;;;;4.75;2.30;;;13.20;99.90;;;12.52;100.00;98084.03;4984042;28;20590;-69
2022/05/18 03:07:41;;;;;;;6.32;2.58;;;13.20;99.90;;;12.34;100.00;98080.47;4983795;28;20056;-69
2022/05/18 03:10:09;;;;;;;5.63;2.50;;;13.10;99.90;;;12.46;100.00;98090.34;4981094;28;20153;-69
2022/05/18 03:12:36;;;;;;;3.50;2.30;;;13.20;99.90;;;12.45;100.00;98090.41;4984606;28;20129;-69
2022/05/18 03:15:04;;;;;;;6.47;2.58;;;13.20;99.90;;;12.62;100.00;98093.16;4982425;28;20141;-70
2022/05/18 03:17:31;;;;;;;4.30;2.35;;;13.20;99.90;;;12.69;100.00;98091.97;4980721;28;20133;-69
2022/05/18 03:19:58;;;;;;;6.45;2.42;;;13.30;99.90;;;12.70;100.00;98101.50;4985604;28;20046;-69
2022/05/18 03:25:10;;;;;;;5.40;2.45;;;13.50;99.90;;;12.84;100.00;98103.50;4977498;28;20082;-70
2022/05/18 03:27:43;;;;;;;8.43;2.50;;;13.50;99.90;;;12.76;100.00;98105.59;4982756;28;20050;-68
2022/05/18 03:30:13;;;;;;;3.40;2.42;;;13.50;99.90;;;12.58;100.00;98108.97;4979874;28;20053;-70
2022/05/18 03:32:40;;;;;;;3.63;2.50;;;13.40;99.90;;;12.51;100.00;98113.59;4980722;28;20065;-68
2022/05/18 03:35:08;;;;;;;9.30;2.38;;;13.30;99.90;;;12.63;100.00;98114.81;4985244;28;20082;-68
2022/05/18 03:37:35;;;;;;;6.07;2.42;;;13.30;99.90;;;12.54;100.00;98110.84;4983925;28;20145;-69
2022/05/18 03:40:03;;;;;;;4.90;2.70;;;13.30;99.90;;;12.60;100.00;98118.41;4983277;28;20057;-69
2022/05/18 03:42:30;;;;;;;6.13;2.75;;;13.30;99.90;;;12.55;100.00;98118.59;4993931;28;20962;-69
2022/05/18 03:44:57;;;;;;;7.30;2.55;;;13.30;99.90;;;12.56;100.00;98122.88;4982054;28;20043;-68
2022/05/18 03:47:24;;;;;;;4.60;2.50;;;13.20;99.90;;;12.53;100.00;98130.00;4982444;28;20585;-69
2022/05/18 03:49:52;;;;;;;6.53;2.60;;;13.20;99.90;;;12.54;100.00;98121.25;4982571;28;20412;-69
2022/05/18 03:52:19;;;;;;;4.47;2.58;;;13.20;99.90;;;12.59;100.00;98119.34;4981683;28;20093;-69
2022/05/18 03:54:46;;;;;;;4.10;2.60;;;13.30;99.90;;;12.65;100.00;98120.81;4980758;28;20064;-69
2022/05/18 03:57:12;;;;;;;6.25;2.63;;;13.30;99.90;;;12.61;100.00;98124.47;4982158;28;20125;-69
2022/05/18 03:59:39;;;;;;;6.78;2.88;;;13.30;99.90;;;12.60;100.00;98121.00;4980642;28;20416;-69
2022/05/18 04:02:07;;;;;;;6.00;2.50;;;13.30;99.90;;;12.53;100.00;98132.59;4981700;28;20054;-69
2022/05/18 04:04:34;;;;;;;5.38;2.60;;;13.30;99.90;;;12.56;100.00;98130.69;4979569;28;20125;-69
2022/05/18 04:07:01;;;;;;;7.38;2.70;;;13.30;99.90;;;12.60;100.00;98131.44;4980018;28;20073;-68
2022/05/18 04:09:29;;;;;;;4.55;2.78;;;13.30;99.90;;;12.68;100.00;98136.31;4980960;28;20056;-68
2022/05/18 04:11:56;;;;;;;7.80;3.08;;;13.40;99.90;;;12.74;100.00;98133.44;4981831;28;20125;-68
2022/05/18 04:14:22;;;;;;;5.00;2.58;;;13.40;99.90;;;12.66;100.00;98133.78;4979612;28;20063;-69
2022/05/18 04:16:50;;;;;;;5.13;2.20;;;13.50;99.90;;;12.70;100.00;98134.47;4979900;28;20058;-68
2022/05/18 04:19:17;;;;;;;4.20;2.10;;;13.50;99.90;;;12.75;100.00;98132.56;4977402;28;20774;-69
2022/05/18 04:21:44;;;;;;;3.15;1.77;;;13.50;99.90;;;12.71;100.00;98131.00;4981431;28;20690;-69
2022/05/18 04:24:11;;;;;;;4.82;2.13;;;13.60;99.90;;;12.67;100.00;98124.22;4978300;28;20483;-67
2022/05/18 04:26:39;;;;;;;5.07;1.95;;;13.50;99.90;;;12.70;100.00;98118.84;4979519;28;20149;-71
2022/05/18 04:29:06;;;;;;;4.18;2.42;;;13.50;99.90;;;12.72;100.00;98122.25;4976953;28;20104;-68
2022/05/18 04:31:33;;;;;;;4.60;1.60;;;13.50;99.90;;;12.83;100.00;98121.78;4979214;28;20516;-70
2022/05/18 04:34:00;;;;;;;4.13;2.13;;;13.60;99.90;;;12.87;100.00;98115.56;4983669;28;20042;-70
2022/05/18 04:36:27;;;;;;;4.78;2.50;;;13.60;99.90;;;12.88;100.00;98118.06;4981392;28;20100;-69
2022/05/18 04:38:54;;;;;;;3.42;1.90;;;13.70;99.90;;;12.91;100.00;98120.56;4984131;28;20130;-69
2022/05/18 04:41:22;;;;;;;5.15;2.00;;;13.70;99.90;;;13.01;100.00;98118.38;4978947;28;20448;-68
2022/05/18 04:43:49;;;;;;;3.53;2.03;;;13.80;99.90;;;13.16;100.00;98116.88;4982455;28;20054;-69
2022/05/18 04:46:16;;;;;;;4.38;1.90;;;13.80;99.90;;;13.31;100.00;98112.75;4982185;28;20570;-68
2022/05/18 04:48:43;;;;;;;4.03;2.38;;;14.00;99.90;;;13.26;100.00;98112.94;4984926;28;20081;-68
2022/05/18 04:51:10;;;;;;;5.25;2.85;;;14.10;99.90;;;13.22;100.00;98116.59;4978111;28;20129;-68
2022/05/18 04:53:37;;;;;;;8.65;5.82;;;14.10;99.90;;;13.17;100.00;98118.56;4978962;28;20093;-68
2022/05/18 04:56:05;;;;;;;6.28;3.50;;;14.10;99.90;;;13.49;100.00;98121.53;4985344;28;20053;-69
2022/05/18 04:58:34;;;;;;;5.25;3.33;;;14.20;99.90;;;13.54;100.00;98125.59;4979908;28;20082;-69
2022/05/18 05:01:07;;;;;;;6.95;3.10;;;14.30;99.90;;;13.57;100.00;98130.69;4991127;28;20135;-68
2022/05/18 05:03:35;;;;;;;5.90;2.47;;;14.40;99.90;;;13.66;100.00;98136.38;4988686;28;20567;-68
2022/05/18 05:06:04;;;;;;;4.88;2.80;;;14.40;99.90;;;13.70;100.00;98138.78;4986446;28;20049;-69
2022/05/18 05:08:34;;;;;;;4.22;2.40;;;14.50;99.90;;;13.71;100.00;98132.66;4981759;28;20046;-68
2022/05/18 05:11:02;;;;;;;6.03;2.15;;;14.60;99.90;;;13.91;100.00;98143.91;4982181;28;20104;-69
2022/05/18 05:13:29;;;;;;;4.43;2.30;;;14.70;99.90;;;13.89;100.00;98146.63;4979744;28;20105;-68
2022/05/18 05:16:08;;;;;;;6.35;2.70;;;14.70;99.90;;;13.98;100.00;98148.78;4981016;28;20145;-68
2022/05/18 05:18:36;;;;;;;5.00;2.65;;;14.80;99.90;;;14.02;100.00;98154.69;4979752;28;20561;-68
2022/05/18 05:21:05;;;;;;;6.18;2.10;;;14.90;99.90;;;14.20;100.00;98153.81;4981594;28;20132;-68
2022/05/18 05:23:32;;;;;;;5.25;2.00;;;15.00;99.90;;;14.35;100.00;98160.06;4980256;28;20051;-71
2022/05/18 05:25:59;;;;;;;6.60;2.22;;;15.20;99.90;;;14.66;100.00;98158.59;4981128;28;20057;-70
2022/05/18 05:28:26;;;;;;;4.70;2.20;;;15.40;99.90;;;14.82;100.00;98159.53;4979430;28;20125;-70
2022/05/18 05:30:54;;;;;;;3.60;2.20;;;15.60;99.90;;;14.95;100.00;98158.91;4981786;28;20130;-70
2022/05/18 05:33:21;;;;;;;6.20;1.98;;;15.80;99.90;;;14.86;100.00;98154.97;4979579;28;20389;-69
2022/05/18 05:35:53;;;;;;;4.78;2.47;;;15.80;99.90;;;14.72;100.00;98147.84;4982533;28;20053;-74
2022/05/18 05:38:20;;;;;;;6.80;3.80;;;15.90;99.90;;;14.67;100.00;98149.00;4984704;28;20053;-69
2022/05/18 05:40:47;;;;;;;8.15;4.43;;;15.90;99.90;;;14.74;100.00;98150.38;4983360;28;20479;-68
2022/05/18 05:43:14;;;;;;;5.78;4.35;;;16.00;99.90;;;14.99;100.00;98139.53;4977453;28;20073;-69
2022/05/18 05:45:41;;;;;;;7.20;4.60;;;16.00;99.90;;;15.22;100.00;98140.94;4978058;28;20047;-68
2022/05/18 05:48:10;;;;;;;6.32;4.22;;;16.20;99.90;;;15.33;100.00;98128.16;4981802;28;20109;-69
2022/05/18 05:50:37;;;;;;;7.00;4.80;;;16.40;99.90;;;15.46;100.00;98136.16;4977697;28;20058;-69
2022/05/18 05:53:04;;;;;;;4.65;3.28;;;16.50;99.90;;;15.80;100.00;98134.38;4984111;28;20046;-69
2022/05/18 05:55:31;;;;;;;6.78;3.78;;;16.60;99.90;;;15.72;100.00;98129.56;4982637;28;20061;-68
2022/05/18 05:57:58;;;;;;;7.63;2.63;;;16.80;99.90;;;15.75;100.00;98132.00;4979489;28;20146;-68
2022/05/18 06:00:25;;;;;;;6.07;3.03;;;17.00;99.90;;;15.85;100.00;98133.22;4981223;28;20058;-71
2022/05/18 06:02:52;;;;;;;9.13;3.05;;;17.10;99.90;;;16.02;100.00;98129.66;4983974;28;20057;-69
2022/05/18 06:05:19;;;;;;;8.02;2.80;;;17.20;99.90;;;16.42;100.00;98137.88;4983158;28;20053;-70
2022/05/18 06:07:47;;;;;;;6.05;2.60;;;17.30;99.90;;;16.78;100.00;98126.16;4985345;28;20046;-71
2022/05/18 06:10:14;;;;;;;4.30;2.25;;;17.60;99.90;;;16.69;100.00;98122.34;4978659;28;20070;-69
2022/05/18 06:12:42;;;;;;;4.05;2.30;;;17.80;99.90;;;16.87;100.00;98130.06;4983278;28;20129;-70
2022/05/18 06:15:10;;;;;;;6.05;2.85;;;18.00;99.90;;;16.84;100.00;98115.34;4980729;28;20457;-70
2022/05/18 06:17:37;;;;;;;4.72;2.60;;;18.10;99.90;;;17.00;100.00;98117.91;4980180;28;20547;-70
2022/05/18 06:20:05;;;;;;;5.03;2.33;;;18.20;99.90;;;17.00;100.00;98120.53;4980954;28;20081;-71
2022/05/18 06:22:32;;;;;;;7.38;2.67;;;18.40;99.90;;;17.39;100.00;98112.97;4983943;28;20244;-70
2022/05/18 06:24:59;;;;;;;3.95;2.15;;;18.50;99.90;;;17.83;100.00;98119.84;4982013;28;20153;-70
2022/05/18 06:27:26;;;;;;;4.28;2.20;;;18.70;99.90;;;18.01;100.00;98121.31;4984559;28;20058;-70
2022/05/18 06:29:53;;;;;;;6.53;2.20;;;19.00;99.90;;;17.95;100.00;98117.28;4981194;28;20420;-70
2022/05/18 06:32:20;;;;;;;4.40;2.40;;;19.10;99.90;;;17.98;100.00;98109.22;4982051;28;20101;-70
2022/05/18 06:34:48;;;;;;;5.07;2.08;;;19.20;99.90;;;18.18;100.00;98118.44;4979459;28;20212;-70
2022/05/18 06:37:15;;;;;;;4.72;1.73;;;19.40;99.90;;;18.41;100.00;98108.22;4982308;28;20077;-69
2022/05/18 06:39:42;;;;;;;3.80;1.60;;;19.60;99.90;;;18.77;100.00;98118.09;4983220;28;20531;-69
2022/05/18 06:42:09;;;;;;;5.28;1.55;;;19.70;99.90;;;19.04;100.00;98111.88;4985845;28;20424;-70
2022/05/18 06:44:36;;;;;;;4.63;1.52;;;19.90;99.90;;;19.11;100.00;98110.53;4987586;28;20050;-70
2022/05/18 06:47:08;;;;;;;4.22;1.35;;;20.10;99.90;;;19.26;100.00;98107.78;4978579;28;20046;-70
2022/05/18 06:49:35;;;;;;;6.53;1.23;;;20.20;99.90;;;19.44;100.00;98104.69;4984709;28;20051;-69
2022/05/18 06:52:03;;;;;;;2.85;1.05;;;20.40;99.90;;;19.50;100.00;98094.69;4984037;28;20129;-70
2022/05/18 06:54:30;;;;;;;4.68;1.77;;;20.50;99.90;;;19.71;100.00;98102.91;4981737;28;20578;-70
2022/05/18 06:57:17;;;;;;;3.42;1.08;;;20.70;99.90;;;19.85;100.00;98097.47;4981979;28;20059;-70
2022/05/18 06:59:44;;;;;;;2.55;0.98;;;20.90;99.90;;;20.08;100.00;98102.88;4981080;28;20054;-69
2022/05/18 07:02:11;;;;;;;3.53;1.20;;;21.00;99.90;;;20.45;100.00;98107.09;4986993;28;20053;-70
2022/05/18 07:04:38;;;;;;;4.35;1.45;;;21.30;99.90;;;20.66;100.00;98107.34;4984318;28;20046;-69
2022/05/18 07:07:09;;;;;;;3.08;1.17;;;21.50;99.90;;;20.89;100.00;98097.66;4983996;28;20173;-70
2022/05/18 07:09:37;;;;;;;4.32;1.20;;;21.80;99.90;;;21.17;100.00;98107.91;4983407;28;20149;-69
2022/05/18 07:12:04;;;;;;;3.17;1.25;;;22.10;99.90;;;21.09;100.00;98097.91;4978424;28;20046;-69
2022/05/18 07:14:33;;;;;;;3.33;1.25;;;22.20;99.90;;;21.05;100.00;98101.75;4981765;28;20082;-69
2022/05/18 07:16:59;;;;;;;2.33;1.08;;;22.30;99.90;;;21.03;100.00;98101.88;4978845;28;20066;-69
2022/05/18 07:19:30;;;;;;;4.63;1.20;;;22.40;99.90;;;21.43;100.00;98105.88;4983224;28;20077;-69
2022/05/18 07:21:57;;;;;;;3.05;1.35;;;22.50;99.90;;;21.56;100.00;98111.88;4984292;28;21733;-70
2022/05/18 07:24:24;;;;;;;4.00;1.08;;;22.50;99.90;;;21.94;100.00;98105.34;4982857;28;20055;-69
2022/05/18 07:26:51;;;;;;;5.57;0.80;;;22.70;99.90;;;22.21;100.00;98106.69;4980562;28;20046;-69
2022/05/18 07:29:18;;;;;;;4.35;1.10;;;22.90;99.90;;;22.37;100.00;98099.22;4982446;28;20054;-69
2022/05/18 07:34:31;;;;;;;6.18;1.10;;;23.30;99.90;;;22.52;100.00;98099.75;4982558;28;20442;-70
2022/05/18 07:36:58;;;;;;;3.20;0.82;;;23.40;99.90;;;22.80;100.00;98108.03;4983556;28;20144;-69
2022/05/18 07:39:28;;;;;;;4.10;1.30;;;23.60;99.90;;;22.72;100.00;98108.69;4982017;28;20233;-70
2022/05/18 07:41:59;;;;;;;8.98;1.60;;;23.70;99.90;;;22.63;100.00;98114.75;4984661;28;20069;-70
2022/05/18 07:44:26;;;;;;;7.82;1.55;;;23.70;99.90;;;22.69;100.00;98116.84;4983006;28;20058;-70
2022/05/18 07:46:55;;;;;;;6.88;1.50;;;23.70;99.90;;;22.73;100.00;98111.19;4983158;28;20130;-70
2022/05/18 07:49:22;;;;;;;3.30;1.30;;;23.80;99.90;;;22.91;100.00;98107.97;4984510;28;20055;-70
2022/05/18 07:51:49;;;;;;;3.63;1.45;;;23.90;99.90;;;23.06;100.00;98108.47;4980858;28;20078;-70
2022/05/18 07:54:17;;;;;;;5.15;1.20;;;24.00;99.90;;;23.19;100.00;98114.41;4986838;28;20130;-69
2022/05/18 07:56:44;;;;;;;3.42;1.13;;;24.20;99.90;;;23.26;100.00;98110.25;4982034;28;20077;-70
2022/05/18 07:59:11;;;;;;;3.08;1.05;;;24.20;99.90;;;23.21;100.00;98109.81;4978519;28;20416;-70
2022/05/18 08:01:39;;;;;;;3.40;1.08;;;24.20;99.90;;;23.34;100.00;98106.97;4982690;28;20513;-69
2022/05/18 08:04:07;;;;;;;4.20;1.13;;;24.30;99.90;;;23.52;100.00;98110.66;4983383;28;20047;-69
2022/05/18 08:06:34;;;;;;;5.22;1.27;;;24.40;99.90;;;23.50;100.00;98109.13;4981090;28;20047;-70
2022/05/18 08:09:03;;;;;;;3.35;0.80;;;24.40;99.90;;;23.67;100.00;98107.63;4982376;28;20042;-70
2022/05/18 08:17:01;;;;;;;6.28;2.08;;;24.70;99.90;;;23.72;100.00;98119.53;4977406;28;20086;-69
2022/05/18 08:19:29;;;;;;;4.38;1.98;;;24.80;99.90;;;23.52;100.00;98109.84;4978191;28;20054;-70
2022/05/18 08:21:56;;;;;;;13.10;2.10;;;24.80;99.90;;;23.43;100.00;98115.94;4977440;28;20058;-69
2022/05/18 08:24:23;;;;;;;3.65;1.55;;;24.60;99.90;;;23.71;100.00;98109.06;4973779;28;20481;-69
2022/05/18 08:26:50;;;;;;;5.90;1.92;;;24.60;99.90;;;23.59;100.00;98113.63;4975537;28;20046;-70
2022/05/18 08:29:17;;;;;;;6.70;2.30;;;24.70;99.90;;;23.79;100.00;98110.09;4977405;28;20089;-70
2022/05/18 08:31:48;;;;;;;7.47;2.00;;;24.80;99.90;;;23.97;100.00;98107.63;4978262;28;20538;-69
2022/05/18 08:34:16;;;;;;;10.95;2.40;;;24.90;99.90;;;24.00;100.00;98098.56;4979362;28;20069;-69
2022/05/18 08:36:43;;;;;;;6.63;1.90;;;25.00;99.90;;;24.23;100.00;98103.59;4978765;28;20145;-70
2022/05/18 08:39:10;;;;;;;8.98;2.15;;;25.10;99.90;;;24.47;100.00;98097.88;4973987;28;20464;-69
2022/05/18 08:41:44;;;;;;;5.50;2.00;;;25.30;99.90;;;24.56;100.00;98100.56;4973440;28;20078;-70
2022/05/18 08:44:32;;;;;;;3.50;1.63;;;25.40;99.90;;;24.86;100.00;98103.16;4981557;28;20078;-68
2022/05/18 08:47:35;;;;;;;5.22;1.55;;;25.70;99.90;;;25.13;100.00;98094.44;4981462;28;20045;-69
2022/05/18 08:50:10;;;;;;;2.85;1.20;;;26.10;99.90;;;25.47;100.00;98097.41;4981759;28;20129;-69
2022/05/18 08:52:47;;;;;;;6.15;1.45;;;26.40;99.90;;;25.37;100.00;98102.78;4965881;28;20093;-69
2022/05/18 08:55:48;;;;;;;5.75;1.40;;;26.60;99.90;;;26.13;100.00;98103.50;4976216;28;20129;-69
2022/05/18 08:58:41;;;;;;;6.50;1.45;;;27.00;99.90;;;25.44;100.00;98101.19;4986069;28;20146;-68
2022/05/18 09:01:18;;;;;;;2.88;1.20;;;27.10;99.90;;;26.43;100.00;98112.94;4979132;28;20150;-68
2022/05/18 09:04:18;;;;;;;2.60;1.30;;;27.30;99.90;;;26.36;100.00;98106.56;4992433;28;20138;-70
2022/05/18 09:07:00;;;;;;;4.68;1.30;;;27.10;99.10;;;26.43;100.00;98105.78;4979143;28;20047;-68
2022/05/18 09:12:28;;;;;;;5.63;1.30;;;27.10;98.80;;;26.85;100.00;98107.84;4980122;28;20054;-69
2022/05/18 09:14:56;;;;;;;5.40;1.30;;;27.30;98.70;;;26.67;100.00;98107.84;4977813;28;20063;-68
2022/05/18 09:17:39;;;;;;;3.00;1.40;;;27.30;98.40;;;27.15;100.00;98112.88;4978589;28;20057;-69
2022/05/18 09:20:13;;;;;;;3.53;1.40;;;27.60;97.40;;;26.62;100.00;98107.50;4989473;28;20052;-68
2022/05/18 09:22:42;;;;;;;4.65;1.50;;;27.60;97.00;;;25.62;100.00;98111.91;4978091;28;20047;-68
2022/05/18 09:25:35;;;;;;;3.50;1.48;;;27.20;96.90;;;25.79;100.00;98126.22;4976788;28;20078;-68
2022/05/18 09:28:11;;;;;;;4.40;1.23;;;26.90;97.10;;;25.99;100.00;98112.84;4980332;28;20169;-68
2022/05/18 09:31:31;;;;;;;2.10;1.00;;;26.60;97.50;;;26.14;100.00;98107.84;4977760;28;20066;-69
2022/05/18 09:34:49;;;;;;;3.00;1.30;;;26.50;97.90;;;26.85;100.00;98105.16;4959437;28;20482;-69
2022/05/18 09:38:02;;;;;;;4.60;1.20;;;26.60;98.20;;;26.63;100.00;98117.13;4918479;29;20782;-67
2022/05/18 09:40:43;;;;;;;4.03;1.30;;;26.50;96.70;;;25.75;100.00;98103.59;4981748;28;20055;-69
2022/05/18 09:43:24;;;;;;;3.47;1.10;;;26.50;96.30;;;26.32;100.00;98105.19;4978035;28;20149;-69
2022/05/18 09:45:51;;;;;;;2.53;0.82;;;26.40;96.20;;;27.65;100.00;98096.97;4979694;28;20081;-69
2022/05/18 09:48:37;;;;;;;8.48;1.33;;;26.90;97.70;;;28.43;100.00;98087.81;4979808;28;20053;-69
2022/05/18 09:51:05;;;;;;;2.65;0.93;;;27.50;96.50;;;28.90;100.00;98087.19;4980752;28;20495;-69
2022/05/18 09:53:32;;;;;;;3.50;1.30;;;27.90;96.20;;;29.63;100.00;98089.81;4989632;28;20109;-70
2022/05/18 09:55:59;;;;;;;3.95;1.50;;;28.40;97.00;;;29.83;100.00;98088.41;4974167;28;20049;-69
2022/05/18 09:58:35;;;;;;;5.95;1.40;;;28.70;95.10;;;29.75;99.96;98083.94;4978240;28;20089;-69
2022/05/18 10:10:12;;;;;;;2.45;0.80;;;29.00;94.20;;;31.03;94.63;98078.00;4980776;28;20141;-69
2022/05/18 10:12:47;;;;;;;3.20;1.02;;;29.30;92.20;;;29.08;100.00;98070.97;4979144;28;20410;-69
2022/05/18 10:15:38;;;;;;;3.80;1.00;;;29.20;92.00;;;29.52;98.53;98080.34;4983662;28;20136;-69
2022/05/18 10:18:33;;;;;;;2.30;1.08;;;29.00;92.00;;;29.35;97.97;98072.41;4982385;28;20065;-70
2022/05/18 10:21:05;;;;;;;2.60;1.08;;;29.10;91.70;;;30.29;97.59;98071.59;4981142;28;20046;-69
2022/05/18 10:23:52;;;;;;;4.72;1.00;;;29.50;91.70;;;29.50;98.28;98069.00;4984995;28;20042;-69
2022/05/18 10:26:41;;;;;;;2.75;1.00;;;29.50;91.20;;;30.13;95.97;98069.84;4981505;28;20153;-69
2022/05/18 10:29:23;;;;;;;4.43;1.10;;;29.30;91.00;;;28.64;100.00;98065.97;4982428;28;20141;-69
2022/05/18 10:32:27;;;;;;;3.13;0.95;;;28.90;91.30;;;30.68;100.00;98073.28;4979286;28;20571;-69
2022/05/18 10:34:56;;;;;;;5.20;1.00;;;29.70;92.70;;;30.01;98.03;98064.88;4978803;28;20053;-70
2022/05/18 10:37:37;;;;;;;4.28;1.08;;;29.80;90.80;;;29.40;94.65;98061.19;4982341;28;20544;-70
2022/05/18 10:40:19;;;;;;;1.95;0.90;;;29.60;88.00;;;28.98;97.40;98060.44;4980210;28;20375;-70
2022/05/18 10:42:56;;;;;;;4.95;1.23;;;29.80;89.20;;;28.61;97.99;98062.84;4985376;28;20137;-69
2022/05/18 10:45:26;;;;;;;2.75;1.20;;;29.30;88.20;;;28.37;99.93;98061.78;4980900;28;20836;-69
2022/05/18 10:47:57;;;;;;;2.90;1.08;;;29.00;89.20;;;28.42;97.65;98061.28;4984090;28;20475;-69
2022/05/18 10:50:37;;;;;;;3.13;1.00;;;28.90;88.50;;;28.82;97.29;98057.78;4981604;28;20153;-69
2022/05/18 10:53:13;;;;;;;1.95;0.85;;;29.10;88.40;;;29.57;96.03;98051.25;4982887;28;20093;-69
2022/05/18 10:56:12;;;;;;;4.65;0.98;;;29.40;88.50;;;28.87;97.84;98049.25;4984027;28;20365;-70